Time,TemperatureF,DewpointF,PressureIn,WindDirection,WindDirectionDegrees,WindSpeedMPH,WindSpeedGustMPH,Humidity,HourlyPrecipIn,Conditions,Clouds,dailyrainin,SoftwareType,DateUTC
2013-02-27 00:01:00,24.6,22.5,29.94,NW,319,13.0,15.0,91,0.00,,,0.00,meteohub,2013-02-27 06:01:00,
2013-02-27 00:06:00,24.6,22.6,29.94,NW,324,6.0,15.0,92,0.00,,,0.00,meteohub,2013-02-27 06:06:00,
2013-02-27 00:11:00,24.6,22.5,29.94,North,355,7.0,15.0,91,0.00,,,0.00,meteohub,2013-02-27 06:11:00,
2013-02-27 00:16:00,24.6,22.5,29.94,NW,321,12.0,15.0,91,0.00,,,0.00,meteohub,2013-02-27 06:16:00,
2013-02-27 00:21:00,24.4,22.3,29.95,NW,320,7.0,15.0,91,0.00,,,0.00,meteohub,2013-02-27 06:21:00,
2013-02-27 00:26:00,24.6,22.5,29.94,NW,311,10.0,14.0,91,0.00,,,0.00,meteohub,2013-02-27 06:26:00,
2013-02-27 00:31:00,24.4,22.3,29.94,NW,317,9.0,14.0,91,0.00,,,0.00,meteohub,2013-02-27 06:31:00,
2013-02-27 00:36:00,24.4,22.5,29.94,WNW,288,7.0,13.0,92,0.00,,,0.00,meteohub,2013-02-27 06:36:00,
2013-02-27 00:41:00,24.4,22.5,29.95,NNW,330,8.0,13.0,92,0.00,,,0.00,meteohub,2013-02-27 06:41:00,
2013-02-27 00:46:00,24.4,22.5,29.94,NW,319,12.0,12.0,92,0.00,,,0.00,meteohub,2013-02-27 06:46:00,
2013-02-27 00:51:00,24.4,22.5,29.95,NW,319,8.0,12.0,92,0.00,,,0.00,meteohub,2013-02-27 06:51:00,
2013-02-27 00:56:00,24.4,22.5,29.94,NW,313,8.0,12.0,92,0.00,,,0.00,meteohub,2013-02-27 06:56:00,
2013-02-27 01:01:00,24.4,22.5,29.95,NNW,334,7.0,12.0,92,0.00,,,0.00,meteohub,2013-02-27 07:01:00,
2013-02-27 01:06:00,24.4,22.5,29.94,NNW,335,5.0,12.0,92,0.00,,,0.00,meteohub,2013-02-27 07:06:00,
2013-02-27 01:11:00,24.4,22.5,29.94,NW,315,6.0,12.0,92,0.00,,,0.00,meteohub,2013-02-27 07:11:00,
2013-02-27 01:16:00,24.4,22.5,29.95,NNW,327,7.0,12.0,92,0.00,,,0.00,meteohub,2013-02-27 07:16:00,
2013-02-27 01:21:00,24.4,22.5,29.95,NNW,346,7.0,12.0,92,0.00,,,0.00,meteohub,2013-02-27 07:21:00,
2013-02-27 01:26:00,24.4,22.3,29.95,North,5,9.0,15.0,91,0.00,,,0.00,meteohub,2013-02-27 07:26:00,
2013-02-27 01:31:00,24.3,22.1,29.95,NW,311,10.0,16.0,91,0.00,,,0.00,meteohub,2013-02-27 07:31:00,
2013-02-27 01:36:00,24.3,22.1,29.95,NNW,331,4.0,16.0,91,0.00,,,0.00,meteohub,2013-02-27 07:36:00,
2013-02-27 01:41:00,24.3,22.1,29.95,North,350,10.0,14.0,91,0.00,,,0.00,meteohub,2013-02-27 07:41:00,
2013-02-27 01:46:00,24.3,22.1,29.95,NNW,346,9.0,15.0,91,0.00,,,0.00,meteohub,2013-02-27 07:46:00,
2013-02-27 01:51:00,24.3,22.1,29.94,NNW,333,7.0,15.0,91,0.00,,,0.00,meteohub,2013-02-27 07:51:00,
2013-02-27 01:56:00,24.3,22.1,29.94,NW,320,12.0,15.0,91,0.00,,,0.00,meteohub,2013-02-27 07:56:00,
2013-02-27 02:01:00,24.3,22.1,29.94,NW,313,8.0,16.0,91,0.00,,,0.00,meteohub,2013-02-27 08:01:00,
2013-02-27 02:06:00,24.1,21.9,29.94,NNW,330,10.0,16.0,91,0.00,,,0.00,meteohub,2013-02-27 08:06:00,
2013-02-27 02:11:00,24.1,22.1,29.94,NW,311,15.0,16.0,92,0.00,,,0.00,meteohub,2013-02-27 08:11:00,
2013-02-27 02:16:00,24.1,22.1,29.94,NW,314,10.0,16.0,92,0.00,,,0.00,meteohub,2013-02-27 08:16:00,
2013-02-27 02:22:00,24.1,22.1,29.94,North,350,8.0,16.0,92,0.00,,,0.00,meteohub,2013-02-27 08:22:00,
2013-02-27 02:27:00,24.1,21.9,29.94,North,351,11.0,16.0,91,0.00,,,0.00,meteohub,2013-02-27 08:27:00,
2013-02-27 02:32:00,24.1,21.9,29.94,NNW,336,14.0,18.0,91,0.00,,,0.00,meteohub,2013-02-27 08:32:00,
2013-02-27 02:37:00,23.9,21.7,29.94,NW,324,14.0,18.0,91,0.00,,,0.00,meteohub,2013-02-27 08:37:00,
2013-02-27 02:42:00,23.9,21.7,29.94,NW,326,9.0,18.0,91,0.00,,,0.00,meteohub,2013-02-27 08:42:00,
2013-02-27 02:47:00,23.9,21.7,29.94,NW,322,9.0,17.0,91,0.00,,,0.00,meteohub,2013-02-27 08:47:00,
2013-02-27 02:52:00,23.9,21.7,29.94,NW,325,12.0,17.0,91,0.00,,,0.00,meteohub,2013-02-27 08:52:00,
2013-02-27 02:57:00,23.9,21.7,29.93,NW,313,9.0,17.0,91,0.00,,,0.00,meteohub,2013-02-27 08:57:00,
2013-02-27 03:02:00,23.9,21.7,29.93,North,0,10.0,17.0,91,0.00,,,0.00,meteohub,2013-02-27 09:02:00,
2013-02-27 03:07:00,23.7,21.6,29.93,NW,317,12.0,17.0,91,0.00,,,0.00,meteohub,2013-02-27 09:07:00,
2013-02-27 03:12:00,23.7,21.6,29.93,NNW,348,10.0,17.0,91,0.00,,,0.00,meteohub,2013-02-27 09:12:00,
2013-02-27 03:17:00,23.7,21.6,29.93,NNW,348,12.0,16.0,91,0.00,,,0.00,meteohub,2013-02-27 09:17:00,
2013-02-27 03:22:00,23.7,21.6,29.93,NW,313,9.0,16.0,91,0.00,,,0.00,meteohub,2013-02-27 09:22:00,
2013-02-27 03:27:00,23.7,21.6,29.93,NW,313,11.0,14.0,91,0.00,,,0.00,meteohub,2013-02-27 09:27:00,
2013-02-27 03:32:00,23.7,21.6,29.93,NW,323,18.0,18.0,91,0.00,,,0.00,meteohub,2013-02-27 09:32:00,
2013-02-27 03:37:00,23.7,21.6,29.93,NW,313,10.0,19.0,91,0.00,,,0.00,meteohub,2013-02-27 09:37:00,
2013-02-27 03:42:00,23.7,21.6,29.93,NNW,332,14.0,19.0,91,0.00,,,0.00,meteohub,2013-02-27 09:42:00,
2013-02-27 03:47:00,23.7,21.6,29.93,NNW,336,13.0,19.0,91,0.00,,,0.00,meteohub,2013-02-27 09:47:00,
2013-02-27 03:52:00,23.5,21.4,29.93,NW,324,8.0,19.0,91,0.00,,,0.00,meteohub,2013-02-27 09:52:00,
2013-02-27 03:57:00,23.5,21.4,29.93,NNW,338,14.0,19.0,91,0.00,,,0.00,meteohub,2013-02-27 09:57:00,
2013-02-27 04:02:00,23.4,21.2,29.93,NW,306,10.0,19.0,91,0.00,,,0.00,meteohub,2013-02-27 10:02:00,
2013-02-27 04:07:00,23.4,21.2,29.93,NW,316,15.0,19.0,91,0.00,,,0.00,meteohub,2013-02-27 10:07:00,
2013-02-27 04:12:00,23.4,21.2,29.93,NW,321,14.0,21.0,91,0.00,,,0.00,meteohub,2013-02-27 10:12:00,
2013-02-27 04:17:00,23.2,21.0,29.93,NNW,348,15.0,21.0,91,0.00,,,0.00,meteohub,2013-02-27 10:17:00,
2013-02-27 04:22:00,23.0,20.8,29.93,North,351,20.0,21.0,91,0.00,,,0.00,meteohub,2013-02-27 10:22:00,
2013-02-27 04:27:00,23.0,20.8,29.93,NW,311,15.0,21.0,91,0.00,,,0.00,meteohub,2013-02-27 10:27:00,
2013-02-27 04:31:00,23.0,20.8,29.93,NW,317,18.0,21.0,91,0.00,,,0.00,meteohub,2013-02-27 10:31:00,
2013-02-27 04:36:00,22.8,20.7,29.93,NW,304,11.0,21.0,91,0.00,,,0.00,meteohub,2013-02-27 10:36:00,
2013-02-27 04:42:00,22.8,20.7,29.93,NNW,336,14.0,20.0,91,0.00,,,0.00,meteohub,2013-02-27 10:42:00,
2013-02-27 04:46:00,22.8,20.7,29.93,NW,304,7.0,20.0,91,0.00,,,0.00,meteohub,2013-02-27 10:46:00,
2013-02-27 04:52:00,22.6,20.5,29.93,WNW,292,15.0,19.0,91,0.00,,,0.00,meteohub,2013-02-27 10:52:00,
2013-02-27 04:57:00,22.6,20.5,29.93,NW,304,14.0,22.0,91,0.00,,,0.00,meteohub,2013-02-27 10:57:00,
2013-02-27 05:02:00,22.6,20.5,29.93,West,278,17.0,22.0,91,0.00,,,0.00,meteohub,2013-02-27 11:02:00,
2013-02-27 05:07:00,22.5,20.3,29.92,WNW,292,12.0,22.0,91,0.00,,,0.00,meteohub,2013-02-27 11:07:00,
2013-02-27 05:12:00,22.5,20.3,29.93,WNW,292,9.0,21.0,91,0.00,,,0.00,meteohub,2013-02-27 11:12:00,
2013-02-27 05:17:00,22.5,20.3,29.93,NW,325,17.0,22.0,91,0.00,,,0.00,meteohub,2013-02-27 11:17:00,
2013-02-27 05:22:00,22.6,20.1,29.93,WNW,289,8.0,22.0,90,0.00,,,0.00,meteohub,2013-02-27 11:22:00,
2013-02-27 05:27:00,22.6,20.1,29.94,NW,318,18.0,22.0,90,0.00,,,0.00,meteohub,2013-02-27 11:27:00,
2013-02-27 05:32:00,22.6,20.1,29.95,NW,321,10.0,19.0,90,0.00,,,0.00,meteohub,2013-02-27 11:32:00,
2013-02-27 05:37:00,22.6,19.9,29.96,NNW,331,17.0,19.0,89,0.00,,,0.00,meteohub,2013-02-27 11:37:00,
2013-02-27 05:42:00,22.8,20.1,29.96,NNW,342,12.0,20.0,89,0.00,,,0.00,meteohub,2013-02-27 11:42:00,
2013-02-27 05:47:00,22.8,20.1,29.96,NNW,327,11.0,20.0,89,0.00,,,0.00,meteohub,2013-02-27 11:47:00,
2013-02-27 05:52:00,22.6,19.9,29.96,NNW,329,8.0,20.0,89,0.00,,,0.00,meteohub,2013-02-27 11:52:00,
2013-02-27 05:57:00,22.6,19.9,29.96,NNW,347,13.0,19.0,89,0.00,,,0.00,meteohub,2013-02-27 11:57:00,
2013-02-27 06:02:00,22.6,19.9,29.96,North,351,16.0,19.0,89,0.00,,,0.00,meteohub,2013-02-27 12:02:00,
2013-02-27 06:07:00,22.6,19.9,29.96,NNW,336,14.0,24.0,89,0.00,,,0.00,meteohub,2013-02-27 12:07:00,
2013-02-27 06:12:00,22.6,19.9,29.96,NW,325,13.0,24.0,89,0.00,,,0.00,meteohub,2013-02-27 12:12:00,
2013-02-27 06:17:00,22.6,19.9,29.97,NNW,327,11.0,24.0,89,0.00,,,0.00,meteohub,2013-02-27 12:17:00,
2013-02-27 06:22:00,22.8,20.1,29.97,NNW,333,15.0,23.0,89,0.00,,,0.00,meteohub,2013-02-27 12:22:00,
2013-02-27 06:27:00,22.8,20.3,29.97,NNW,328,11.0,23.0,90,0.00,,,0.00,meteohub,2013-02-27 12:27:00,
2013-02-27 06:32:00,22.8,20.3,29.97,NW,319,13.0,23.0,90,0.00,,,0.00,meteohub,2013-02-27 12:32:00,
2013-02-27 06:37:00,22.8,20.3,29.97,NNW,335,12.0,22.0,90,0.00,,,0.00,meteohub,2013-02-27 12:37:00,
2013-02-27 06:42:00,22.8,20.3,29.98,NW,321,13.0,22.0,90,0.00,,,0.00,meteohub,2013-02-27 12:42:00,
2013-02-27 06:47:00,22.6,19.9,29.98,NW,325,14.0,22.0,89,0.00,,,0.00,meteohub,2013-02-27 12:47:00,
2013-02-27 06:52:00,22.6,19.9,29.98,NNW,347,10.0,22.0,89,0.00,,,0.00,meteohub,2013-02-27 12:52:00,
2013-02-27 06:57:00,22.5,19.8,29.98,NNW,327,11.0,21.0,89,0.00,,,0.00,meteohub,2013-02-27 12:57:00,
2013-02-27 07:02:00,22.3,19.6,29.98,NW,316,17.0,21.0,89,0.00,,,0.00,meteohub,2013-02-27 13:02:00,
2013-02-27 07:07:00,22.3,19.6,29.98,NW,320,12.0,20.0,89,0.00,,,0.00,meteohub,2013-02-27 13:07:00,
2013-02-27 07:12:00,22.3,19.6,29.98,NNW,335,14.0,20.0,89,0.00,,,0.00,meteohub,2013-02-27 13:12:00,
2013-02-27 07:16:00,22.1,19.4,29.99,NW,326,19.0,20.0,89,0.00,,,0.00,meteohub,2013-02-27 13:16:00,
2013-02-27 07:21:00,22.1,19.4,29.99,NNW,336,13.0,20.0,89,0.00,,,0.00,meteohub,2013-02-27 13:21:00,
2013-02-27 07:27:00,22.3,19.6,29.99,NW,323,14.0,20.0,89,0.00,,,0.00,meteohub,2013-02-27 13:27:00,
2013-02-27 07:32:00,22.3,19.6,29.99,NW,309,19.0,20.0,89,0.00,,,0.00,meteohub,2013-02-27 13:32:00,
2013-02-27 07:37:00,22.3,19.6,29.99,NNW,329,15.0,24.0,89,0.00,,,0.00,meteohub,2013-02-27 13:37:00,
2013-02-27 07:42:00,22.5,19.8,29.99,NW,319,17.0,24.0,89,0.00,,,0.00,meteohub,2013-02-27 13:42:00,
2013-02-27 07:47:00,22.6,19.6,30.00,NW,326,18.0,24.0,88,0.00,,,0.00,meteohub,2013-02-27 13:47:00,
2013-02-27 07:52:00,22.8,19.8,30.00,NW,314,12.0,22.0,88,0.00,,,0.00,meteohub,2013-02-27 13:52:00,
2013-02-27 07:57:00,23.2,20.1,30.00,NW,321,17.0,22.0,88,0.00,,,0.00,meteohub,2013-02-27 13:57:00,
2013-02-27 08:02:00,23.4,20.1,30.00,WNW,293,8.0,22.0,87,0.00,,,0.00,meteohub,2013-02-27 14:02:00,
2013-02-27 08:07:00,23.5,20.3,30.01,NW,324,17.0,22.0,87,0.00,,,0.00,meteohub,2013-02-27 14:07:00,
2013-02-27 08:12:00,23.7,20.5,30.01,NW,317,13.0,21.0,87,0.00,,,0.00,meteohub,2013-02-27 14:12:00,
2013-02-27 08:17:00,24.1,20.5,30.01,NW,306,10.0,24.0,86,0.00,,,0.00,meteohub,2013-02-27 14:17:00,
2013-02-27 08:22:00,24.4,20.7,30.02,NW,307,12.0,24.0,85,0.00,,,0.00,meteohub,2013-02-27 14:22:00,
2013-02-27 08:27:00,24.6,20.8,30.02,NW,319,16.0,27.0,85,0.00,,,0.00,meteohub,2013-02-27 14:27:00,
2013-02-27 08:32:00,25.0,20.8,30.02,WNW,299,16.0,27.0,84,0.00,,,0.00,meteohub,2013-02-27 14:32:00,
2013-02-27 08:37:00,25.3,20.8,30.02,NW,323,16.0,27.0,83,0.00,,,0.00,meteohub,2013-02-27 14:37:00,
2013-02-27 08:42:00,25.5,20.8,30.03,NW,319,22.0,28.0,82,0.00,,,0.00,meteohub,2013-02-27 14:42:00,
2013-02-27 08:47:00,26.1,21.0,30.03,NNW,340,16.0,28.0,81,0.00,,,0.00,meteohub,2013-02-27 14:47:00,
2013-02-27 08:52:00,26.2,21.2,30.03,NNW,333,19.0,28.0,81,0.00,,,0.00,meteohub,2013-02-27 14:52:00,
2013-02-27 08:57:00,26.4,21.0,30.04,NNW,333,17.0,26.0,80,0.00,,,0.00,meteohub,2013-02-27 14:57:00,
2013-02-27 09:02:00,26.8,21.4,30.04,NW,315,20.0,26.0,80,0.00,,,0.00,meteohub,2013-02-27 15:02:00,
2013-02-27 09:07:00,27.0,21.4,30.04,NNW,327,14.0,27.0,79,0.00,,,0.00,meteohub,2013-02-27 15:07:00,
2013-02-27 09:12:00,27.1,21.6,30.04,NNW,336,20.0,27.0,79,0.00,,,0.00,meteohub,2013-02-27 15:12:00,
2013-02-27 09:17:00,27.7,21.7,30.04,NW,317,24.0,26.0,78,0.00,,,0.00,meteohub,2013-02-27 15:17:00,
2013-02-27 09:22:00,27.9,21.9,30.04,NW,309,12.0,26.0,78,0.00,,,0.00,meteohub,2013-02-27 15:22:00,
2013-02-27 09:28:00,28.0,22.1,30.05,NW,320,22.0,26.0,78,0.00,,,0.00,meteohub,2013-02-27 15:28:00,
2013-02-27 09:33:00,28.2,22.3,30.05,NNW,338,14.0,26.0,78,0.00,,,0.00,meteohub,2013-02-27 15:33:00,
2013-02-27 09:38:00,28.8,22.5,30.05,NW,325,18.0,24.0,77,0.00,,,0.00,meteohub,2013-02-27 15:38:00,
2013-02-27 09:43:00,28.8,22.1,30.05,NNW,328,20.0,24.0,76,0.00,,,0.00,meteohub,2013-02-27 15:43:00,
2013-02-27 09:48:00,28.8,22.1,30.05,NW,321,20.0,24.0,76,0.00,,,0.00,meteohub,2013-02-27 15:48:00,
2013-02-27 09:53:00,28.8,22.1,30.05,WNW,302,16.0,25.0,76,0.00,,,0.00,meteohub,2013-02-27 15:53:00,
2013-02-27 09:58:00,28.8,22.1,30.05,NNW,329,13.0,25.0,76,0.00,,,0.00,meteohub,2013-02-27 15:58:00,
2013-02-27 10:03:00,28.9,22.3,30.05,NNW,336,12.0,26.0,76,0.00,,,0.00,meteohub,2013-02-27 16:03:00,
2013-02-27 10:08:00,29.3,22.3,30.05,NNW,329,18.0,26.0,75,0.00,,,0.00,meteohub,2013-02-27 16:08:00,
2013-02-27 10:13:00,30.0,22.8,30.06,NW,310,8.0,26.0,74,0.00,,,0.00,meteohub,2013-02-27 16:13:00,
2013-02-27 10:18:00,30.4,22.8,30.06,NNW,341,19.0,26.0,73,0.00,,,0.00,meteohub,2013-02-27 16:18:00,
2013-02-27 10:23:00,30.4,22.5,30.06,NW,323,14.0,25.0,72,0.00,,,0.00,meteohub,2013-02-27 16:23:00,
2013-02-27 10:28:00,30.4,22.8,30.06,NNW,335,11.0,25.0,73,0.00,,,0.00,meteohub,2013-02-27 16:28:00,
2013-02-27 10:33:00,30.6,22.6,30.05,NW,324,18.0,25.0,72,0.00,,,0.00,meteohub,2013-02-27 16:33:00,
2013-02-27 10:38:00,30.7,22.8,30.06,NW,319,20.0,25.0,72,0.00,,,0.00,meteohub,2013-02-27 16:38:00,
2013-02-27 10:43:00,30.9,23.0,30.06,NW,323,12.0,25.0,72,0.00,,,0.00,meteohub,2013-02-27 16:43:00,
2013-02-27 10:48:00,31.3,23.0,30.06,NW,318,21.0,26.0,71,0.00,,,0.00,meteohub,2013-02-27 16:48:00,
2013-02-27 10:53:00,31.1,23.2,30.06,NW,324,14.0,26.0,72,0.00,,,0.00,meteohub,2013-02-27 16:53:00,
2013-02-27 10:58:00,31.3,23.4,30.06,NW,319,17.0,26.0,72,0.00,,,0.00,meteohub,2013-02-27 16:58:00,
2013-02-27 11:03:00,31.3,23.4,30.06,NW,324,19.0,25.0,72,0.00,,,0.00,meteohub,2013-02-27 17:03:00,
2013-02-27 11:08:00,31.5,23.5,30.07,NW,321,21.0,25.0,72,0.00,,,0.00,meteohub,2013-02-27 17:08:00,
2013-02-27 11:13:00,31.6,23.4,30.07,NW,318,21.0,25.0,71,0.00,,,0.00,meteohub,2013-02-27 17:13:00,
2013-02-27 11:18:00,31.6,23.4,30.07,NNW,327,19.0,25.0,71,0.00,,,0.00,meteohub,2013-02-27 17:18:00,
2013-02-27 11:23:00,31.8,23.9,30.07,WNW,294,11.0,25.0,72,0.00,,,0.00,meteohub,2013-02-27 17:23:00,
2013-02-27 11:28:00,31.8,23.9,30.08,NW,306,21.0,25.0,72,0.00,,,0.00,meteohub,2013-02-27 17:28:00,
2013-02-27 11:33:00,31.8,23.5,30.07,NW,319,19.0,26.0,71,0.00,,,0.00,meteohub,2013-02-27 17:33:00,
2013-02-27 11:38:00,31.8,23.5,30.07,NW,316,15.0,27.0,71,0.00,,,0.00,meteohub,2013-02-27 17:38:00,
2013-02-27 11:43:00,32.2,23.9,30.07,NW,315,22.0,27.0,71,0.00,,,0.00,meteohub,2013-02-27 17:43:00,
2013-02-27 11:48:00,32.4,24.1,30.07,NNW,328,21.0,27.0,71,0.00,,,0.00,meteohub,2013-02-27 17:48:00,
2013-02-27 11:53:00,32.5,23.2,30.07,NNW,334,17.0,24.0,68,0.00,,,0.00,meteohub,2013-02-27 17:53:00,
2013-02-27 11:58:00,32.5,23.5,30.08,North,355,24.0,27.0,69,0.00,,,0.00,meteohub,2013-02-27 17:58:00,
2013-02-27 12:03:00,33.1,23.7,30.08,NW,326,23.0,30.0,68,0.00,,,0.00,meteohub,2013-02-27 18:03:00,
2013-02-27 12:08:00,33.3,24.3,30.08,NNW,334,11.0,30.0,69,0.00,,,0.00,meteohub,2013-02-27 18:08:00,
2013-02-27 12:13:00,33.3,24.3,30.08,NW,317,18.0,30.0,69,0.00,,,0.00,meteohub,2013-02-27 18:13:00,
2013-02-27 12:18:00,33.3,24.6,30.08,NW,306,10.0,28.0,70,0.00,,,0.00,meteohub,2013-02-27 18:18:00,
2013-02-27 12:23:00,33.1,24.6,30.08,NW,318,18.0,24.0,71,0.00,,,0.00,meteohub,2013-02-27 18:23:00,
2013-02-27 12:28:00,33.3,25.2,30.08,NNW,328,12.0,23.0,72,0.00,,,0.00,meteohub,2013-02-27 18:28:00,
2013-02-27 12:33:00,33.6,25.9,30.08,NW,317,27.0,31.0,73,0.00,,,0.00,meteohub,2013-02-27 18:33:00,
2013-02-27 12:38:00,34.0,26.2,30.08,NW,315,20.0,31.0,73,0.00,,,0.00,meteohub,2013-02-27 18:38:00,
2013-02-27 12:43:00,33.6,26.2,30.08,NW,316,17.0,31.0,74,0.00,,,0.00,meteohub,2013-02-27 18:43:00,
2013-02-27 12:48:00,33.6,26.6,30.08,NW,313,15.0,28.0,75,0.00,,,0.00,meteohub,2013-02-27 18:48:00,
2013-02-27 12:53:00,33.6,26.2,30.08,WNW,286,15.0,28.0,74,0.00,,,0.00,meteohub,2013-02-27 18:53:00,
2013-02-27 12:58:00,33.6,26.6,30.08,NW,322,23.0,27.0,75,0.00,,,0.00,meteohub,2013-02-27 18:58:00,
2013-02-27 13:03:00,34.0,27.0,30.08,NW,318,18.0,29.0,75,0.00,,,0.00,meteohub,2013-02-27 19:03:00,
2013-02-27 13:08:00,34.2,27.3,30.08,NW,317,17.0,29.0,76,0.00,,,0.00,meteohub,2013-02-27 19:08:00,
2013-02-27 13:13:00,34.2,27.3,30.08,NNW,340,26.0,29.0,76,0.00,,,0.00,meteohub,2013-02-27 19:13:00,
2013-02-27 13:18:00,34.3,27.5,30.08,NW,317,13.0,28.0,76,0.00,,,0.00,meteohub,2013-02-27 19:18:00,
2013-02-27 13:23:00,34.5,27.5,30.08,NW,314,18.0,31.0,75,0.00,,,0.00,meteohub,2013-02-27 19:23:00,
2013-02-27 13:28:00,34.9,28.0,30.08,NW,323,17.0,31.0,76,0.00,,,0.00,meteohub,2013-02-27 19:28:00,
2013-02-27 13:34:00,35.1,28.2,30.08,NW,324,18.0,29.0,76,0.00,,,0.00,meteohub,2013-02-27 19:34:00,
2013-02-27 13:39:00,35.1,28.2,30.08,NNW,334,17.0,26.0,76,0.00,,,0.00,meteohub,2013-02-27 19:39:00,
2013-02-27 13:44:00,35.1,27.9,30.08,NW,305,16.0,26.0,75,0.00,,,0.00,meteohub,2013-02-27 19:44:00,
2013-02-27 13:49:00,35.2,28.4,30.08,NW,304,14.0,29.0,76,0.00,,,0.00,meteohub,2013-02-27 19:49:00,
2013-02-27 13:54:00,35.4,28.0,30.08,NW,325,20.0,29.0,74,0.00,,,0.00,meteohub,2013-02-27 19:54:00,
2013-02-27 13:59:00,35.6,28.2,30.08,NW,315,22.0,29.0,74,0.00,,,0.00,meteohub,2013-02-27 19:59:00,
2013-02-27 14:04:00,35.8,28.4,30.08,NW,321,13.0,28.0,74,0.00,,,0.00,meteohub,2013-02-27 20:04:00,
2013-02-27 14:09:00,35.8,28.0,30.08,NNW,329,24.0,28.0,73,0.00,,,0.00,meteohub,2013-02-27 20:09:00,
2013-02-27 14:14:00,36.0,28.4,30.08,NW,325,23.0,29.0,74,0.00,,,0.00,meteohub,2013-02-27 20:14:00,
2013-02-27 14:19:00,36.0,28.4,30.08,NNW,327,22.0,29.0,74,0.00,,,0.00,meteohub,2013-02-27 20:19:00,
2013-02-27 14:24:00,36.0,28.4,30.08,NW,324,13.0,28.0,74,0.00,,,0.00,meteohub,2013-02-27 20:24:00,
2013-02-27 14:29:00,36.0,28.4,30.08,NW,318,20.0,29.0,74,0.00,,,0.00,meteohub,2013-02-27 20:29:00,
2013-02-27 14:34:00,36.1,28.6,30.08,NW,321,15.0,29.0,74,0.00,,,0.00,meteohub,2013-02-27 20:34:00,
2013-02-27 14:39:00,36.1,28.6,30.08,NW,325,23.0,29.0,74,0.00,,,0.00,meteohub,2013-02-27 20:39:00,
2013-02-27 14:44:00,36.0,28.4,30.08,NW,311,19.0,25.0,74,0.00,,,0.00,meteohub,2013-02-27 20:44:00,
2013-02-27 14:49:00,36.0,28.4,30.09,NW,317,24.0,24.0,74,0.00,,,0.00,meteohub,2013-02-27 20:49:00,
2013-02-27 14:54:00,36.0,28.4,30.09,NNW,331,23.0,24.0,74,0.00,,,0.00,meteohub,2013-02-27 20:54:00,
2013-02-27 14:59:00,36.1,28.6,30.09,NW,324,14.0,28.0,74,0.00,,,0.00,meteohub,2013-02-27 20:59:00,
2013-02-27 15:04:00,36.1,28.6,30.09,NNW,338,17.0,28.0,74,0.00,,,0.00,meteohub,2013-02-27 21:04:00,
2013-02-27 15:09:00,36.1,28.4,30.09,NNW,330,18.0,25.0,73,0.00,,,0.00,meteohub,2013-02-27 21:09:00,
2013-02-27 15:14:00,36.0,28.2,30.09,NW,314,22.0,24.0,73,0.00,,,0.00,meteohub,2013-02-27 21:14:00,
2013-02-27 15:19:00,35.8,28.0,30.09,NW,325,12.0,24.0,73,0.00,,,0.00,meteohub,2013-02-27 21:19:00,
2013-02-27 15:24:00,35.8,28.4,30.09,NW,316,17.0,24.0,74,0.00,,,0.00,meteohub,2013-02-27 21:24:00,
2013-02-27 15:29:00,35.6,28.2,30.09,NW,306,13.0,26.0,74,0.00,,,0.00,meteohub,2013-02-27 21:29:00,
2013-02-27 15:34:00,35.8,27.7,30.09,NW,320,19.0,26.0,72,0.00,,,0.00,meteohub,2013-02-27 21:34:00,
2013-02-27 15:39:00,35.8,28.0,30.09,NW,315,13.0,26.0,73,0.00,,,0.00,meteohub,2013-02-27 21:39:00,
2013-02-27 15:44:00,35.4,27.3,30.09,WNW,302,9.0,25.0,72,0.00,,,0.00,meteohub,2013-02-27 21:44:00,
2013-02-27 15:49:00,35.2,27.5,30.09,North,355,12.0,25.0,73,0.00,,,0.00,meteohub,2013-02-27 21:49:00,
2013-02-27 15:54:00,35.4,27.7,30.09,NW,319,19.0,25.0,73,0.00,,,0.00,meteohub,2013-02-27 21:54:00,
2013-02-27 15:59:00,35.6,27.9,30.09,NW,307,21.0,25.0,73,0.00,,,0.00,meteohub,2013-02-27 21:59:00,
2013-02-27 16:04:00,35.4,27.7,30.09,NW,323,11.0,22.0,73,0.00,,,0.00,meteohub,2013-02-27 22:04:00,
2013-02-27 16:09:00,35.4,28.0,30.09,NNW,329,15.0,22.0,74,0.00,,,0.00,meteohub,2013-02-27 22:09:00,
2013-02-27 16:14:00,35.4,27.7,30.09,NNW,329,14.0,25.0,73,0.00,,,0.00,meteohub,2013-02-27 22:14:00,
2013-02-27 16:19:00,35.4,27.7,30.09,NW,322,16.0,25.0,73,0.00,,,0.00,meteohub,2013-02-27 22:19:00,
2013-02-27 16:24:00,35.6,27.9,30.09,NW,306,18.0,24.0,73,0.00,,,0.00,meteohub,2013-02-27 22:24:00,
2013-02-27 16:29:00,35.4,27.7,30.09,NW,318,17.0,24.0,73,0.00,,,0.00,meteohub,2013-02-27 22:29:00,
2013-02-27 16:34:00,35.1,27.3,30.10,NNW,334,22.0,24.0,73,0.00,,,0.00,meteohub,2013-02-27 22:34:00,
2013-02-27 16:39:00,35.1,27.3,30.09,NNW,340,17.0,25.0,73,0.00,,,0.00,meteohub,2013-02-27 22:39:00,
2013-02-27 16:44:00,34.9,27.5,30.10,NW,311,15.0,26.0,74,0.00,,,0.00,meteohub,2013-02-27 22:44:00,
2013-02-27 16:49:00,34.5,27.5,30.10,NW,305,13.0,26.0,75,0.00,,,0.00,meteohub,2013-02-27 22:49:00,
2013-02-27 16:54:00,34.5,27.5,30.10,NW,319,8.0,25.0,75,0.00,,,0.00,meteohub,2013-02-27 22:54:00,
2013-02-27 16:59:00,34.3,27.3,30.10,NNW,344,15.0,25.0,75,0.00,,,0.00,meteohub,2013-02-27 22:59:00,
2013-02-27 17:04:00,34.3,27.3,30.10,NW,315,10.0,25.0,75,0.00,,,0.00,meteohub,2013-02-27 23:04:00,
2013-02-27 17:09:00,34.2,27.3,30.10,NW,323,16.0,23.0,76,0.00,,,0.00,meteohub,2013-02-27 23:09:00,
2013-02-27 17:14:00,34.2,27.3,30.10,NNW,343,12.0,23.0,76,0.00,,,0.00,meteohub,2013-02-27 23:14:00,
2013-02-27 17:20:00,34.0,27.1,30.10,NW,317,13.0,21.0,76,0.00,,,0.00,meteohub,2013-02-27 23:20:00,
2013-02-27 17:25:00,34.0,27.5,30.10,NW,313,13.0,21.0,77,0.00,,,0.00,meteohub,2013-02-27 23:25:00,
2013-02-27 17:30:00,33.8,27.3,30.10,NW,311,12.0,20.0,77,0.00,,,0.00,meteohub,2013-02-27 23:30:00,
2013-02-27 17:35:00,33.6,26.8,30.11,WNW,303,13.0,20.0,76,0.00,,,0.00,meteohub,2013-02-27 23:35:00,
2013-02-27 17:40:00,33.6,26.6,30.10,WNW,298,12.0,20.0,75,0.00,,,0.00,meteohub,2013-02-27 23:40:00,
2013-02-27 17:45:00,33.6,26.6,30.11,NW,325,17.0,20.0,75,0.00,,,0.00,meteohub,2013-02-27 23:45:00,
2013-02-27 17:50:00,33.4,26.8,30.10,WNW,300,9.0,20.0,76,0.00,,,0.00,meteohub,2013-02-27 23:50:00,
2013-02-27 17:55:00,33.3,26.6,30.11,NNW,329,8.0,21.0,76,0.00,,,0.00,meteohub,2013-02-27 23:55:00,
2013-02-27 18:00:00,33.1,27.0,30.11,WNW,303,9.0,22.0,78,0.00,,,0.00,meteohub,2013-02-28 00:00:00,
2013-02-27 18:05:00,32.9,26.8,30.11,NW,321,15.0,22.0,78,0.00,,,0.00,meteohub,2013-02-28 00:05:00,
2013-02-27 18:10:00,32.9,27.1,30.11,WNW,296,12.0,19.0,79,0.00,,,0.00,meteohub,2013-02-28 00:10:00,
2013-02-27 18:15:00,32.7,27.0,30.11,WNW,300,11.0,17.0,79,0.00,,,0.00,meteohub,2013-02-28 00:15:00,
2013-02-27 18:20:00,32.7,27.3,30.11,WNW,302,11.0,21.0,80,0.00,,,0.00,meteohub,2013-02-28 00:20:00,
2013-02-27 18:25:00,32.7,27.3,30.11,NW,318,12.0,21.0,80,0.00,,,0.00,meteohub,2013-02-28 00:25:00,
2013-02-27 18:30:00,32.5,27.3,30.11,WNW,297,7.0,21.0,81,0.00,,,0.00,meteohub,2013-02-28 00:30:00,
2013-02-27 18:35:00,32.4,27.1,30.11,WNW,302,10.0,20.0,81,0.00,,,0.00,meteohub,2013-02-28 00:35:00,
2013-02-27 18:40:00,32.4,27.1,30.11,NW,325,10.0,19.0,81,0.00,,,0.00,meteohub,2013-02-28 00:40:00,
2013-02-27 18:45:00,32.2,27.3,30.11,NW,311,6.0,17.0,82,0.00,,,0.00,meteohub,2013-02-28 00:45:00,
2013-02-27 18:50:00,32.2,27.3,30.11,West,268,8.0,17.0,82,0.00,,,0.00,meteohub,2013-02-28 00:50:00,
2013-02-27 18:55:00,32.0,27.1,30.11,WNW,296,11.0,16.0,82,0.00,,,0.00,meteohub,2013-02-28 00:55:00,
2013-02-27 19:00:00,32.0,27.1,30.11,WNW,284,9.0,16.0,82,0.00,,,0.00,meteohub,2013-02-28 01:00:00,
2013-02-27 19:05:00,32.0,27.1,30.11,WNW,303,8.0,15.0,82,0.00,,,0.00,meteohub,2013-02-28 01:05:00,
2013-02-27 19:10:00,32.0,27.1,30.11,NW,310,11.0,16.0,82,0.00,,,0.00,meteohub,2013-02-28 01:10:00,
2013-02-27 19:15:00,32.0,27.1,30.11,NW,311,12.0,16.0,82,0.00,,,0.00,meteohub,2013-02-28 01:15:00,
2013-02-27 19:20:00,31.8,27.0,30.11,NNW,328,12.0,17.0,82,0.00,,,0.00,meteohub,2013-02-28 01:20:00,
2013-02-27 19:25:00,31.6,27.1,30.11,NW,313,13.0,17.0,83,0.00,,,0.00,meteohub,2013-02-28 01:25:00,
2013-02-27 19:30:00,31.6,27.1,30.12,NW,309,11.0,18.0,83,0.00,,,0.00,meteohub,2013-02-28 01:30:00,
2013-02-27 19:35:00,31.6,27.1,30.12,WNW,284,9.0,18.0,83,0.00,,,0.00,meteohub,2013-02-28 01:35:00,
2013-02-27 19:40:00,31.6,27.1,30.12,NW,305,12.0,18.0,83,0.00,,,0.00,meteohub,2013-02-28 01:40:00,
2013-02-27 19:45:00,31.6,27.1,30.12,NW,320,13.0,17.0,83,0.00,,,0.00,meteohub,2013-02-28 01:45:00,
2013-02-27 19:50:00,31.6,27.1,30.12,NW,321,11.0,16.0,83,0.00,,,0.00,meteohub,2013-02-28 01:50:00,
2013-02-27 19:55:00,31.6,27.1,30.12,NW,316,14.0,18.0,83,0.00,,,0.00,meteohub,2013-02-28 01:55:00,
2013-02-27 20:00:00,31.8,27.3,30.12,NW,325,11.0,18.0,83,0.00,,,0.00,meteohub,2013-02-28 02:00:00,
2013-02-27 20:05:00,31.8,27.3,30.12,NW,311,9.0,18.0,83,0.00,,,0.00,meteohub,2013-02-28 02:05:00,
2013-02-27 20:10:00,31.8,27.3,30.12,NW,323,13.0,18.0,83,0.00,,,0.00,meteohub,2013-02-28 02:10:00,
2013-02-27 20:15:00,32.0,27.5,30.12,NNW,335,9.0,18.0,83,0.00,,,0.00,meteohub,2013-02-28 02:15:00,
2013-02-27 20:20:00,32.0,27.5,30.12,WNW,297,7.0,17.0,83,0.00,,,0.00,meteohub,2013-02-28 02:20:00,
2013-02-27 20:25:00,32.2,27.7,30.12,NW,306,12.0,17.0,83,0.00,,,0.00,meteohub,2013-02-28 02:25:00,
2013-02-27 20:30:00,32.2,27.7,30.12,WNW,303,12.0,18.0,83,0.00,,,0.00,meteohub,2013-02-28 02:30:00,
2013-02-27 20:35:00,32.0,27.5,30.12,NW,306,9.0,18.0,83,0.00,,,0.00,meteohub,2013-02-28 02:35:00,
2013-02-27 20:40:00,31.8,27.3,30.12,NW,307,6.0,17.0,83,0.00,,,0.00,meteohub,2013-02-28 02:40:00,
2013-02-27 20:45:00,31.8,27.3,30.12,NW,322,9.0,15.0,83,0.00,,,0.00,meteohub,2013-02-28 02:45:00,
2013-02-27 20:50:00,31.8,27.0,30.12,WNW,298,15.0,19.0,82,0.00,,,0.00,meteohub,2013-02-28 02:50:00,
2013-02-27 20:55:00,31.8,27.0,30.12,WNW,302,13.0,19.0,82,0.00,,,0.00,meteohub,2013-02-28 02:55:00,
2013-02-27 21:00:00,31.8,26.6,30.12,WNW,290,15.0,20.0,81,0.00,,,0.00,meteohub,2013-02-28 03:00:00,
2013-02-27 21:05:00,31.8,26.6,30.13,NW,309,13.0,22.0,81,0.00,,,0.00,meteohub,2013-02-28 03:05:00,
2013-02-27 21:10:00,31.8,26.4,30.12,NW,313,19.0,22.0,80,0.00,,,0.00,meteohub,2013-02-28 03:10:00,
2013-02-27 21:15:00,31.6,26.4,30.13,NW,315,20.0,24.0,81,0.00,,,0.00,meteohub,2013-02-28 03:15:00,
2013-02-27 21:20:00,31.6,26.4,30.13,NW,316,13.0,25.0,81,0.00,,,0.00,meteohub,2013-02-28 03:20:00,
2013-02-27 21:25:00,31.6,26.4,30.13,NW,323,18.0,25.0,81,0.00,,,0.00,meteohub,2013-02-28 03:25:00,
2013-02-27 21:30:00,31.8,26.4,30.12,NNW,344,13.0,25.0,80,0.00,,,0.00,meteohub,2013-02-28 03:30:00,
2013-02-27 21:35:00,31.8,26.4,30.13,NNW,345,11.0,25.0,80,0.00,,,0.00,meteohub,2013-02-28 03:35:00,
2013-02-27 21:40:00,31.6,26.2,30.13,NNW,327,13.0,25.0,80,0.00,,,0.00,meteohub,2013-02-28 03:40:00,
2013-02-27 21:45:00,31.5,26.1,30.13,NNW,330,14.0,25.0,80,0.00,,,0.00,meteohub,2013-02-28 03:45:00,
2013-02-27 21:50:00,31.5,26.1,30.13,North,355,14.0,24.0,80,0.00,,,0.00,meteohub,2013-02-28 03:50:00,
2013-02-27 21:55:00,31.5,26.1,30.13,NW,326,12.0,24.0,80,0.00,,,0.00,meteohub,2013-02-28 03:55:00,
2013-02-27 22:00:00,31.3,26.1,30.13,NNW,330,17.0,24.0,81,0.00,,,0.00,meteohub,2013-02-28 04:00:00,
2013-02-27 22:05:00,31.3,26.1,30.13,NW,315,13.0,21.0,81,0.00,,,0.00,meteohub,2013-02-28 04:05:00,
2013-02-27 22:11:00,31.3,26.1,30.13,NW,323,14.0,21.0,81,0.00,,,0.00,meteohub,2013-02-28 04:11:00,
2013-02-27 22:16:00,31.3,26.1,30.13,NW,315,9.0,21.0,81,0.00,,,0.00,meteohub,2013-02-28 04:16:00,
2013-02-27 22:21:00,31.3,26.4,30.12,WNW,299,8.0,21.0,82,0.00,,,0.00,meteohub,2013-02-28 04:21:00,
2013-02-27 22:26:00,31.1,26.2,30.12,NW,326,13.0,18.0,82,0.00,,,0.00,meteohub,2013-02-28 04:26:00,
2013-02-27 22:31:00,31.1,26.2,30.12,NW,322,14.0,18.0,82,0.00,,,0.00,meteohub,2013-02-28 04:31:00,
2013-02-27 22:36:00,31.1,26.6,30.12,NNW,329,13.0,20.0,83,0.00,,,0.00,meteohub,2013-02-28 04:36:00,
2013-02-27 22:41:00,30.9,26.4,30.12,NW,324,14.0,20.0,83,0.00,,,0.00,meteohub,2013-02-28 04:41:00,
2013-02-27 22:46:00,31.1,26.6,30.12,NNW,333,15.0,20.0,83,0.00,,,0.00,meteohub,2013-02-28 04:46:00,
2013-02-27 22:51:00,30.9,26.4,30.12,NW,320,15.0,20.0,83,0.00,,,0.00,meteohub,2013-02-28 04:51:00,
2013-02-27 22:56:00,30.9,26.4,30.12,NNW,329,13.0,18.0,83,0.00,,,0.00,meteohub,2013-02-28 04:56:00,
2013-02-27 23:00:00,30.9,26.4,30.12,NW,319,13.0,18.0,83,0.00,,,0.00,meteohub,2013-02-28 05:00:00,
2013-02-27 23:01:00,30.9,26.4,30.12,NW,321,13.0,21.0,83,0.00,,,0.00,meteohub,2013-02-28 05:01:00,
2013-02-27 23:06:00,30.9,26.4,30.12,NW,320,17.0,21.0,83,0.00,,,0.00,meteohub,2013-02-28 05:06:00,
2013-02-27 23:11:00,30.7,25.9,30.12,NNW,335,14.0,23.0,82,0.00,,,0.00,meteohub,2013-02-28 05:11:00,
2013-02-27 23:16:00,30.6,25.7,30.12,NNW,348,18.0,23.0,82,0.00,,,0.00,meteohub,2013-02-28 05:16:00,
2013-02-27 23:21:00,30.6,25.7,30.12,NW,323,14.0,24.0,82,0.00,,,0.00,meteohub,2013-02-28 05:21:00,
2013-02-27 23:26:00,30.4,25.5,30.12,NW,315,15.0,24.0,82,0.00,,,0.00,meteohub,2013-02-28 05:26:00,
2013-02-27 23:31:00,30.2,25.7,30.12,NNW,344,17.0,24.0,83,0.00,,,0.00,meteohub,2013-02-28 05:31:00,
2013-02-27 23:36:00,30.0,25.5,30.12,NNW,343,11.0,27.0,83,0.00,,,0.00,meteohub,2013-02-28 05:36:00,
2013-02-27 23:41:00,30.0,25.5,30.12,NNW,334,10.0,27.0,83,0.00,,,0.00,meteohub,2013-02-28 05:41:00,
2013-02-27 23:46:00,30.0,25.5,30.12,NNW,338,9.0,27.0,83,0.00,,,0.00,meteohub,2013-02-28 05:46:00,
2013-02-27 23:51:00,30.0,25.5,30.12,NW,319,17.0,22.0,83,0.00,,,0.00,meteohub,2013-02-28 05:51:00,
2013-02-27 23:56:00,30.0,25.5,30.12,NNW,331,17.0,22.0,83,0.00,,,0.00,meteohub,2013-02-28 05:56:00,